Terminal Aerodrome Forecast
Issued by NWS

Home | Current Version | Previous Version | Text Only | Print | Product List | Glossary On
Versions: 1 2 3 4 5 6 7 8 9 10 11 12 13 14 15 16 17 18 19 20 21 22 23 24
000
FTUS45 KLKN 221723
TAFWMC
TAF
KWMC 221723Z 2218/2318 20006KT P6SM BKN120
     FM222200 22008KT P6SM VCTS SCT080CB BKN120
     FM230600 VRB06KT P6SM BKN100
     FM231200 16005KT P6SM BKN120=

USA.gov is the U.S. government's official web portal to all federal, state and local government web resources and services.